Poltava, Ukraine
Current Conditions -  °F | °C
As of 3:00 PM on Friday 28 Nov 2014 (Local Time) from UKHH Reporting Station
Snow Showers Snow Showers  
Wind Chill: 17°   Ceiling: 2000
Heat Index: 25°   Visibility: 1.2mi
Dew Point: 23°   Wind: 7mph
Humidity: 93%   Direction: 90°E
Pressure: 30.36"   Gusts: NA
Location:  49.58°N, 34.57°E
Report Text: UKHH 281200Z 09003MPS 2000 -SHSN SCT007 BKN020CB M04/M05 Q1028 07490339 TEMPO 0300 +SHSN BKN001 BKN011CB
Loading
Personal Weather Stations






























Interactive Weather Map New forecast layout! Learn more

10-Day Weather Forecast

Advertisements
Track Severe Weather on mobile